Time;durP1;ratioP1;P1;durP2;ratioP2;P2;SDS_P1;SDS_P2;PMS_P1;PMS_P2;Temp;Humidity;BMP_temperature;BMP_pressure;BME280_temperature;BME280_humidity;BME280_pressure;Samples;Min_cycle;Max_cycle;Signal;HPM_P1;HPM_P2
2021/07/01 00:01:00;;;;;;;0.50;0.40;;;14.30;99.90;;;;;;5056199;28;20576;-78
2021/07/01 00:03:27;;;;;;;0.40;0.40;;;14.30;99.90;;;;;;5056824;28;20488;-78
2021/07/01 00:05:54;;;;;;;0.50;0.30;;;14.30;99.90;;;;;;5059636;28;20472;-80
2021/07/01 00:08:22;;;;;;;0.50;0.40;;;14.30;99.90;;;;;;5064133;28;20451;-78
2021/07/01 00:10:49;;;;;;;0.73;0.73;;;14.30;99.90;;;;;;5065211;28;20442;-78
2021/07/01 00:13:15;;;;;;;0.50;0.30;;;14.30;99.90;;;;;;5065768;28;20464;-76
2021/07/01 00:15:43;;;;;;;0.50;0.50;;;14.30;99.90;;;;;;5064251;28;20437;-80
2021/07/01 00:18:09;;;;;;;0.40;0.30;;;14.30;99.90;;;;;;5063283;28;20549;-79
2021/07/01 00:20:36;;;;;;;0.57;0.53;;;14.30;99.90;;;;;;5057156;28;20788;-79
2021/07/01 00:23:03;;;;;;;0.40;0.40;;;14.30;99.90;;;;;;5057108;28;20484;-80
2021/07/01 00:25:31;;;;;;;2.27;2.10;;;14.30;99.90;;;;;;5048933;28;20949;-78
2021/07/01 00:27:59;;;;;;;0.60;0.60;;;14.30;99.90;;;;;;5056453;28;20818;-78
2021/07/01 00:30:27;;;;;;;1.33;1.33;;;14.30;99.90;;;;;;5056254;28;20469;-75
2021/07/01 00:32:54;;;;;;;2.10;2.00;;;14.30;99.90;;;;;;5056380;28;20875;-78
2021/07/01 00:35:21;;;;;;;0.50;0.40;;;14.30;99.90;;;;;;5055967;28;20965;-79
2021/07/01 00:37:48;;;;;;;0.40;0.30;;;14.30;99.90;;;;;;5063124;28;20552;-79
2021/07/01 00:40:15;;;;;;;0.40;0.40;;;14.30;99.90;;;;;;5062894;28;20437;-77
2021/07/01 00:42:44;;;;;;;0.40;0.30;;;14.30;99.90;;;;;;5063496;28;21013;-77
2021/07/01 00:45:11;;;;;;;0.40;0.30;;;14.30;99.90;;;;;;5059849;28;20448;-79
2021/07/01 00:47:38;;;;;;;1.27;1.17;;;14.30;99.90;;;;;;5056860;28;20476;-79
2021/07/01 00:50:08;;;;;;;0.40;0.30;;;14.30;99.90;;;;;;5057172;28;20807;-78
2021/07/01 00:52:35;;;;;;;0.40;0.30;;;14.20;99.90;;;;;;5056608;28;20468;-79
2021/07/01 00:55:02;;;;;;;1.50;1.37;;;14.20;99.90;;;;;;5056603;28;20437;-79
2021/07/01 00:57:29;;;;;;;0.40;0.30;;;14.30;99.90;;;;;;5055838;28;20441;-80
2021/07/01 00:59:57;;;;;;;0.40;0.30;;;14.20;99.90;;;;;;5056087;28;20964;-79
2021/07/01 01:02:24;;;;;;;0.90;0.90;;;14.20;99.90;;;;;;5056236;28;20433;-79
2021/07/01 01:04:50;;;;;;;0.40;0.30;;;14.20;99.90;;;;;;5055806;28;20441;-79
2021/07/01 01:07:17;;;;;;;0.40;0.40;;;14.20;99.90;;;;;;5055970;28;20990;-79
2021/07/01 01:09:44;;;;;;;2.93;2.53;;;14.20;99.90;;;;;;5056101;28;20449;-79
2021/07/01 01:12:11;;;;;;;0.43;0.30;;;14.20;99.90;;;;;;5056338;28;20441;-80
2021/07/01 01:14:38;;;;;;;0.40;0.30;;;14.20;99.90;;;;;;5055121;28;20461;-79
2021/07/01 01:17:06;;;;;;;0.50;0.50;;;14.20;99.90;;;;;;5056847;28;20437;-79
2021/07/01 01:19:33;;;;;;;2.20;2.10;;;14.20;99.90;;;;;;5056369;28;20969;-79
2021/07/01 01:22:01;;;;;;;0.40;0.30;;;14.30;99.90;;;;;;5056884;28;20437;-78
2021/07/01 01:24:28;;;;;;;0.40;0.30;;;14.30;99.90;;;;;;5055676;28;20457;-78
2021/07/01 01:26:55;;;;;;;0.50;0.40;;;14.30;99.90;;;;;;5055555;28;20465;-78
2021/07/01 01:29:22;;;;;;;1.47;0.97;;;14.30;99.90;;;;;;5055566;28;20452;-78
2021/07/01 01:31:49;;;;;;;0.40;0.30;;;14.30;99.90;;;;;;5055877;28;20445;-77
2021/07/01 01:34:17;;;;;;;0.40;0.30;;;14.30;99.90;;;;;;5054550;28;20460;-78
2021/07/01 01:36:44;;;;;;;0.40;0.30;;;14.30;99.90;;;;;;5055274;28;20444;-79
2021/07/01 01:39:12;;;;;;;0.40;0.30;;;14.30;99.90;;;;;;5055133;28;20831;-78
2021/07/01 01:41:39;;;;;;;0.40;0.40;;;14.30;99.90;;;;;;5054864;28;20441;-78
2021/07/01 01:44:06;;;;;;;0.40;0.40;;;14.30;99.90;;;;;;5054087;28;20461;-79
2021/07/01 01:46:35;;;;;;;1.77;1.67;;;14.30;99.90;;;;;;5053824;28;20476;-77
2021/07/01 01:49:02;;;;;;;0.60;0.60;;;14.30;99.90;;;;;;5055012;28;20441;-78
2021/07/01 01:51:29;;;;;;;0.40;0.30;;;14.30;99.90;;;;;;5054602;28;20445;-77
2021/07/01 01:53:55;;;;;;;1.17;1.07;;;14.20;99.90;;;;;;5054655;28;20473;-78
2021/07/01 01:56:24;;;;;;;1.37;1.27;;;14.20;99.90;;;;;;5054919;28;20425;-77
2021/07/01 01:58:50;;;;;;;0.47;0.40;;;14.20;99.90;;;;;;5054813;28;20815;-77
2021/07/01 02:01:17;;;;;;;0.80;0.80;;;14.10;99.90;;;;;;5054261;28;20468;-79
2021/07/01 02:03:44;;;;;;;2.73;0.90;;;14.10;99.90;;;;;;5054808;28;20468;-78
2021/07/01 02:06:11;;;;;;;0.43;0.33;;;14.00;99.90;;;;;;5054194;28;20795;-78
2021/07/01 02:08:38;;;;;;;0.47;0.30;;;14.00;99.90;;;;;;5055556;28;20437;-78
2021/07/01 02:11:05;;;;;;;0.50;0.50;;;14.00;99.90;;;;;;5054993;28;20969;-78
2021/07/01 02:13:33;;;;;;;4.20;3.13;;;14.10;99.90;;;;;;5054495;28;20461;-79
2021/07/01 02:16:00;;;;;;;0.40;0.30;;;14.00;99.90;;;;;;5054494;28;20441;-79
2021/07/01 02:18:27;;;;;;;0.50;0.40;;;14.00;99.90;;;;;;5054130;28;20441;-77
2021/07/01 02:20:54;;;;;;;1.40;1.40;;;14.00;99.90;;;;;;5053899;28;20225;-77
2021/07/01 02:23:21;;;;;;;6.33;2.23;;;14.00;99.90;;;;;;5054027;28;20476;-78
2021/07/01 02:25:47;;;;;;;3.33;3.13;;;14.00;99.90;;;;;;5053375;28;20441;-78
2021/07/01 02:28:14;;;;;;;2.30;2.10;;;14.00;99.90;;;;;;5053396;28;20603;-78
2021/07/01 02:30:42;;;;;;;2.23;0.90;;;14.00;99.90;;;;;;5053705;28;20437;-79
2021/07/01 02:33:09;;;;;;;3.43;3.17;;;13.90;99.90;;;;;;5053752;28;20776;-77
2021/07/01 02:35:36;;;;;;;3.13;2.93;;;13.90;99.90;;;;;;5054053;28;20437;-78
2021/07/01 02:38:03;;;;;;;2.90;2.80;;;13.90;99.90;;;;;;5053817;28;20444;-77
2021/07/01 02:40:30;;;;;;;1.43;1.33;;;13.90;99.90;;;;;;5054212;28;20656;-78
2021/07/01 02:42:56;;;;;;;0.97;0.97;;;13.80;99.90;;;;;;5054089;28;20467;-78
2021/07/01 02:45:23;;;;;;;1.83;1.27;;;13.90;99.90;;;;;;5052559;28;20482;-77
2021/07/01 02:47:51;;;;;;;0.40;0.33;;;13.80;99.90;;;;;;5053851;28;20487;-79
2021/07/01 02:50:18;;;;;;;1.30;1.30;;;13.90;99.90;;;;;;5054040;28;20445;-78
2021/07/01 02:52:45;;;;;;;0.63;0.63;;;13.80;99.90;;;;;;5054029;28;20470;-78
2021/07/01 02:55:12;;;;;;;2.87;2.30;;;13.90;99.90;;;;;;5053796;28;20460;-79
2021/07/01 02:57:39;;;;;;;3.80;3.50;;;13.90;99.90;;;;;;5053748;28;20433;-78
2021/07/01 03:00:09;;;;;;;2.58;2.38;;;13.80;99.90;;;;;;5052540;28;20439;-78
2021/07/01 03:02:35;;;;;;;0.40;0.40;;;13.80;99.90;;;;;;5051678;28;20218;-77
2021/07/01 03:05:04;;;;;;;0.50;0.30;;;13.80;99.90;;;;;;5051929;28;20445;-78
2021/07/01 03:07:31;;;;;;;0.47;0.37;;;13.80;99.90;;;;;;5051195;28;20475;-78
2021/07/01 03:09:58;;;;;;;0.50;0.47;;;13.90;99.90;;;;;;5053149;28;20457;-77
2021/07/01 03:12:25;;;;;;;2.20;1.00;;;13.90;99.90;;;;;;5052676;28;20449;-78
2021/07/01 03:14:52;;;;;;;0.90;0.90;;;13.90;99.90;;;;;;5054996;28;20453;-77
2021/07/01 03:17:19;;;;;;;1.57;1.57;;;13.80;99.90;;;;;;5056274;28;20445;-77
2021/07/01 03:19:46;;;;;;;0.40;0.30;;;13.90;99.90;;;;;;5056893;28;20453;-77
2021/07/01 03:22:14;;;;;;;9.43;0.80;;;13.90;99.90;;;;;;5056771;28;20436;-78
2021/07/01 03:24:41;;;;;;;0.87;0.87;;;13.90;99.90;;;;;;5056157;28;20446;-77
2021/07/01 03:27:07;;;;;;;0.40;0.40;;;13.80;99.90;;;;;;5055695;28;20468;-77
2021/07/01 03:29:34;;;;;;;0.77;0.77;;;13.80;99.90;;;;;;5056204;28;20433;-78
2021/07/01 03:32:01;;;;;;;0.40;0.40;;;13.80;99.90;;;;;;5056148;28;20460;-78
2021/07/01 03:34:28;;;;;;;0.40;0.30;;;13.80;99.90;;;;;;5056478;28;20463;-77
2021/07/01 03:36:55;;;;;;;0.40;0.40;;;13.80;99.90;;;;;;5055720;28;20433;-77
2021/07/01 03:39:23;;;;;;;0.40;0.40;;;13.80;99.90;;;;;;5056295;28;20950;-77
2021/07/01 03:41:49;;;;;;;0.40;0.40;;;13.80;99.90;;;;;;5055139;28;20445;-78
2021/07/01 03:44:17;;;;;;;0.40;0.30;;;13.80;99.90;;;;;;5056289;28;20462;-77
2021/07/01 03:46:43;;;;;;;0.40;0.40;;;13.90;99.90;;;;;;5055555;28;20525;-77
2021/07/01 03:49:12;;;;;;;0.70;0.70;;;13.90;99.90;;;;;;5055631;28;20441;-78
2021/07/01 03:51:39;;;;;;;0.40;0.37;;;13.90;99.90;;;;;;5054219;28;20457;-78
2021/07/01 03:54:05;;;;;;;0.40;0.40;;;13.90;99.90;;;;;;5054530;28;20846;-77
2021/07/01 03:56:41;;;;;;;0.40;0.33;;;13.90;99.90;;;;;;5054496;28;20186;-77
2021/07/01 03:59:09;;;;;;;0.93;0.93;;;13.90;99.90;;;;;;5054719;28;20422;-77
2021/07/01 04:01:36;;;;;;;0.40;0.30;;;13.90;99.90;;;;;;5054342;28;20691;-78
2021/07/01 04:04:03;;;;;;;0.40;0.30;;;13.90;99.90;;;;;;5054740;28;20466;-78
2021/07/01 04:06:30;;;;;;;0.50;0.50;;;13.90;99.90;;;;;;5054547;28;20456;-78
2021/07/01 04:08:57;;;;;;;0.60;0.60;;;14.00;99.90;;;;;;5053916;28;20477;-78
2021/07/01 04:11:24;;;;;;;1.57;1.17;;;14.00;99.90;;;;;;5054382;28;20642;-78
2021/07/01 04:13:52;;;;;;;0.40;0.30;;;13.90;99.90;;;;;;5053762;28;20556;-77
2021/07/01 04:16:19;;;;;;;1.43;1.30;;;13.90;99.90;;;;;;5053722;28;20456;-78
2021/07/01 04:18:46;;;;;;;1.20;0.90;;;13.90;99.90;;;;;;5053867;28;20429;-78
2021/07/01 04:21:12;;;;;;;0.70;0.67;;;13.90;99.90;;;;;;5054027;28;20437;-78
2021/07/01 04:23:39;;;;;;;2.10;1.73;;;13.90;99.90;;;;;;5053456;28;21000;-76
2021/07/01 04:26:06;;;;;;;0.40;0.30;;;13.90;99.90;;;;;;5053433;28;20845;-78
2021/07/01 04:28:33;;;;;;;1.53;1.43;;;13.80;99.90;;;;;;5054078;28;20552;-78
2021/07/01 04:31:02;;;;;;;3.70;2.23;;;13.80;99.90;;;;;;5053286;28;20428;-77
2021/07/01 04:33:29;;;;;;;1.33;1.23;;;13.80;99.90;;;;;;5053490;28;20544;-79
2021/07/01 04:35:56;;;;;;;12.03;1.50;;;13.80;99.90;;;;;;5053397;28;20921;-77
2021/07/01 04:38:23;;;;;;;1.50;0.87;;;13.80;99.90;;;;;;5052924;28;20457;-77
2021/07/01 04:40:50;;;;;;;0.40;0.40;;;13.80;99.90;;;;;;5053230;28;20441;-78
2021/07/01 04:43:16;;;;;;;3.13;2.93;;;13.80;99.90;;;;;;5053716;28;20502;-78
2021/07/01 04:45:43;;;;;;;0.40;0.33;;;13.80;99.90;;;;;;5053803;28;20970;-78
2021/07/01 04:48:11;;;;;;;1.23;1.13;;;13.80;99.90;;;;;;5052979;28;20472;-77
2021/07/01 04:50:38;;;;;;;5.63;1.30;;;13.80;99.90;;;;;;5052768;28;21490;-79
2021/07/01 04:53:05;;;;;;;1.23;1.23;;;13.80;99.90;;;;;;5054803;28;20492;-78
2021/07/01 04:55:32;;;;;;;1.50;1.03;;;13.80;99.90;;;;;;5054702;28;20440;-78
2021/07/01 04:57:58;;;;;;;1.63;0.70;;;13.80;99.90;;;;;;5053980;28;20445;-78
2021/07/01 05:00:25;;;;;;;2.03;1.83;;;13.80;99.90;;;;;;5053855;28;20435;-78
2021/07/01 05:02:52;;;;;;;0.67;0.67;;;13.80;99.90;;;;;;5053454;28;20453;-76
2021/07/01 05:05:20;;;;;;;1.63;1.40;;;13.80;99.90;;;;;;5053915;28;20445;-78
2021/07/01 05:07:47;;;;;;;1.47;1.37;;;13.80;99.90;;;;;;5052731;28;20472;-78
2021/07/01 05:10:15;;;;;;;1.10;1.10;;;13.70;99.90;;;;;;5053897;28;20441;-77
2021/07/01 05:12:42;;;;;;;0.40;0.30;;;13.70;99.90;;;;;;5054154;28;20523;-77
2021/07/01 05:15:10;;;;;;;0.90;0.90;;;13.70;99.90;;;;;;5054644;28;20818;-78
2021/07/01 05:17:37;;;;;;;1.37;1.37;;;13.70;99.90;;;;;;5054348;28;20436;-77
2021/07/01 05:20:05;;;;;;;1.20;1.10;;;13.70;99.90;;;;;;5054681;28;20444;-79
2021/07/01 05:22:34;;;;;;;0.95;0.85;;;13.70;99.90;;;;;;5054813;28;20452;-78
2021/07/01 05:25:00;;;;;;;0.40;0.40;;;13.70;99.90;;;;;;5054664;28;20560;-79
2021/07/01 05:27:27;;;;;;;3.63;2.20;;;13.70;99.90;;;;;;5054390;28;20496;-78
2021/07/01 05:29:54;;;;;;;0.40;0.30;;;13.80;99.90;;;;;;5053907;28;20491;-78
2021/07/01 05:32:20;;;;;;;0.40;0.40;;;13.80;99.90;;;;;;5054019;28;20449;-79
2021/07/01 05:34:47;;;;;;;0.90;0.77;;;13.80;99.90;;;;;;5054437;28;20440;-78
2021/07/01 05:37:14;;;;;;;0.40;0.30;;;13.80;99.90;;;;;;5052528;28;20846;-78
2021/07/01 05:39:42;;;;;;;0.75;0.75;;;13.80;99.90;;;;;;5052886;28;20684;-77
2021/07/01 05:42:09;;;;;;;0.40;0.40;;;13.80;99.90;;;;;;5053351;28;20194;-78
2021/07/01 05:44:36;;;;;;;0.90;0.90;;;13.80;99.90;;;;;;5051814;28;20453;-78
2021/07/01 05:47:03;;;;;;;0.77;0.40;;;13.80;99.90;;;;;;5051176;28;20441;-78
2021/07/01 05:49:30;;;;;;;0.77;0.77;;;13.80;99.90;;;;;;5051581;28;20444;-78
2021/07/01 05:52:00;;;;;;;4.63;2.53;;;13.80;99.90;;;;;;5051625;28;20199;-78
2021/07/01 05:54:29;;;;;;;0.83;0.67;;;13.90;99.90;;;;;;5051225;28;20457;-78
2021/07/01 05:56:58;;;;;;;1.30;1.30;;;13.80;99.90;;;;;;5050773;28;20433;-77
2021/07/01 05:59:25;;;;;;;1.00;1.00;;;13.80;99.90;;;;;;5051842;28;20437;-78
2021/07/01 06:01:52;;;;;;;1.40;1.40;;;13.80;99.90;;;;;;5051356;28;20802;-79
2021/07/01 06:04:19;;;;;;;3.17;1.87;;;13.80;99.90;;;;;;5050708;28;20492;-78
2021/07/01 06:06:53;;;;;;;0.40;0.40;;;13.70;99.90;;;;;;5050948;28;20437;-78
2021/07/01 06:09:23;;;;;;;0.47;0.40;;;13.70;99.90;;;;;;5051069;28;20354;-77
2021/07/01 06:11:54;;;;;;;2.30;1.57;;;13.70;99.90;;;;;;5051443;28;20449;-78
2021/07/01 06:14:23;;;;;;;0.60;0.60;;;13.70;99.90;;;;;;5050655;28;20462;-76
2021/07/01 06:16:53;;;;;;;0.97;0.97;;;13.80;99.90;;;;;;5044466;28;20453;-78
2021/07/01 06:19:20;;;;;;;1.37;1.27;;;13.80;99.90;;;;;;5050810;28;20857;-78
2021/07/01 06:21:47;;;;;;;0.97;0.97;;;13.80;99.90;;;;;;5052620;28;20433;-78
2021/07/01 06:24:16;;;;;;;0.40;0.40;;;13.80;99.90;;;;;;5051998;28;20453;-78
2021/07/01 06:26:44;;;;;;;3.57;3.13;;;13.80;99.90;;;;;;5052467;28;20444;-77
2021/07/01 06:29:11;;;;;;;0.40;0.30;;;13.80;99.90;;;;;;5050909;28;20472;-77
2021/07/01 06:31:40;;;;;;;0.55;0.55;;;13.70;99.90;;;;;;5050496;28;20442;-78
2021/07/01 06:34:07;;;;;;;0.50;0.45;;;13.80;99.90;;;;;;5050569;28;20211;-77
2021/07/01 06:36:36;;;;;;;0.60;0.60;;;13.80;99.90;;;;;;5050480;28;20202;-78
2021/07/01 06:39:05;;;;;;;3.50;1.70;;;13.80;99.90;;;;;;5050908;28;20429;-77
2021/07/01 06:41:36;;;;;;;0.40;0.30;;;13.80;99.90;;;;;;5051759;28;20441;-78
2021/07/01 06:44:03;;;;;;;0.50;0.40;;;13.80;99.90;;;;;;5050331;28;20222;-78
2021/07/01 06:46:33;;;;;;;3.53;1.50;;;13.90;99.90;;;;;;5042172;28;20444;-77
2021/07/01 06:49:01;;;;;;;0.40;0.40;;;13.90;99.90;;;;;;5053980;28;20484;-77
2021/07/01 06:51:33;;;;;;;1.80;1.70;;;13.90;99.90;;;;;;5054128;28;20433;-78
2021/07/01 06:54:03;;;;;;;0.40;0.40;;;13.90;99.90;;;;;;5054551;28;20479;-77
2021/07/01 06:56:38;;;;;;;1.07;1.07;;;14.00;99.90;;;;;;5034750;28;20198;-77
2021/07/01 06:59:06;;;;;;;0.40;0.30;;;14.00;99.90;;;;;;5034784;28;20442;-78
2021/07/01 07:01:33;;;;;;;2.77;1.70;;;14.00;99.90;;;;;;5034433;28;20442;-77
2021/07/01 07:04:01;;;;;;;1.27;1.17;;;14.10;99.90;;;;;;5034764;28;20468;-78
2021/07/01 07:06:28;;;;;;;0.53;0.53;;;14.00;99.90;;;;;;5034375;28;20449;-78
2021/07/01 07:08:56;;;;;;;0.40;0.30;;;14.10;99.90;;;;;;5034794;28;20474;-78
2021/07/01 07:11:23;;;;;;;1.23;1.23;;;14.10;99.90;;;;;;5040760;28;20464;-78
2021/07/01 07:13:50;;;;;;;0.40;0.30;;;14.20;99.90;;;;;;5054112;28;20457;-77
2021/07/01 07:16:18;;;;;;;1.70;1.60;;;14.20;99.90;;;;;;5054206;28;20440;-78
2021/07/01 07:18:47;;;;;;;1.50;1.40;;;14.20;99.90;;;;;;5054579;28;20443;-77
2021/07/01 07:21:17;;;;;;;0.40;0.40;;;14.20;99.90;;;;;;5056874;28;20452;-76
2021/07/01 07:23:49;;;;;;;0.40;0.30;;;14.30;99.90;;;;;;5055406;28;20456;-78
2021/07/01 07:26:20;;;;;;;1.33;0.93;;;14.20;99.90;;;;;;5055114;28;20438;-78
2021/07/01 07:28:51;;;;;;;0.40;0.30;;;14.20;99.90;;;;;;5054615;28;20479;-79
2021/07/01 07:31:24;;;;;;;0.40;0.30;;;14.20;99.90;;;;;;5054982;28;20843;-78
2021/07/01 07:33:54;;;;;;;1.27;1.27;;;14.30;99.90;;;;;;5054983;28;20474;-78
2021/07/01 07:36:25;;;;;;;6.63;3.40;;;14.30;99.90;;;;;;5054289;28;20453;-77
2021/07/01 07:38:52;;;;;;;0.70;0.70;;;14.30;99.90;;;;;;5055229;28;20721;-77
2021/07/01 07:41:20;;;;;;;0.50;0.50;;;14.30;99.90;;;;;;5055772;28;20452;-77
2021/07/01 07:43:49;;;;;;;0.40;0.30;;;14.30;99.90;;;;;;5055049;28;20846;-78
2021/07/01 07:46:18;;;;;;;0.93;0.93;;;14.30;99.90;;;;;;5054818;28;20521;-78
2021/07/01 07:48:45;;;;;;;1.73;1.63;;;14.40;99.90;;;;;;5054772;28;20833;-78
2021/07/01 07:51:15;;;;;;;1.00;0.90;;;14.40;99.90;;;;;;5055567;28;20445;-77
2021/07/01 07:53:46;;;;;;;6.53;3.17;;;14.40;99.90;;;;;;5054616;28;20472;-78
2021/07/01 07:56:15;;;;;;;3.03;1.50;;;14.30;99.90;;;;;;5054291;28;20814;-78
2021/07/01 07:58:47;;;;;;;1.43;1.33;;;14.30;99.90;;;;;;5055316;28;20428;-78
2021/07/01 08:01:14;;;;;;;1.10;1.10;;;14.30;99.90;;;;;;5054674;28;20422;-78
2021/07/01 08:03:41;;;;;;;3.03;2.90;;;14.40;99.90;;;;;;5055545;28;20468;-78
2021/07/01 08:06:10;;;;;;;4.23;1.73;;;14.40;99.90;;;;;;5054308;28;20495;-78
2021/07/01 08:08:38;;;;;;;0.73;0.73;;;14.30;99.90;;;;;;5054746;28;20496;-78
2021/07/01 08:11:09;;;;;;;0.40;0.40;;;14.30;99.90;;;;;;5055230;28;20199;-77
2021/07/01 08:13:37;;;;;;;2.73;2.57;;;14.30;99.90;;;;;;5054161;28;20453;-78
2021/07/01 08:16:05;;;;;;;1.33;1.23;;;14.30;99.90;;;;;;5057364;28;20452;-78
2021/07/01 08:18:37;;;;;;;0.40;0.30;;;14.30;99.90;;;;;;5051423;28;20457;-78
2021/07/01 08:21:04;;;;;;;1.95;1.88;;;14.20;99.90;;;;;;5053598;28;20460;-78
2021/07/01 08:23:31;;;;;;;0.40;0.30;;;14.30;99.90;;;;;;5053051;28;20210;-78
2021/07/01 08:25:59;;;;;;;1.00;0.80;;;14.30;99.90;;;;;;5055869;28;20930;-77
2021/07/01 08:28:27;;;;;;;0.50;0.50;;;14.30;99.90;;;;;;5053687;28;20472;-77
2021/07/01 08:30:54;;;;;;;3.07;2.20;;;14.30;99.90;;;;;;5052775;28;20202;-77
2021/07/01 08:33:23;;;;;;;1.03;1.03;;;14.30;99.90;;;;;;5053057;28;20527;-74
2021/07/01 08:35:55;;;;;;;3.90;2.43;;;14.30;99.90;;;;;;5053436;28;20449;-78
2021/07/01 08:38:22;;;;;;;1.50;1.40;;;14.30;99.90;;;;;;5053689;28;20946;-78
2021/07/01 08:40:50;;;;;;;3.67;3.33;;;14.30;99.90;;;;;;5053123;28;20441;-78
2021/07/01 08:43:19;;;;;;;4.35;2.67;;;14.30;99.90;;;;;;5052819;28;20465;-75
2021/07/01 08:46:00;;;;;;;6.80;2.40;;;14.20;99.90;;;;;;5052631;28;20194;-77
2021/07/01 08:48:42;;;;;;;2.43;2.23;;;14.10;99.90;;;;;;5052433;28;20472;-73
2021/07/01 08:51:10;;;;;;;2.60;1.30;;;14.20;99.90;;;;;;5053209;28;20491;-78
2021/07/01 08:53:57;;;;;;;0.40;0.30;;;14.10;99.90;;;;;;5053108;28;20465;-77
2021/07/01 08:56:26;;;;;;;1.70;1.60;;;14.20;99.90;;;;;;5051765;28;20439;-73
2021/07/01 08:59:00;;;;;;;0.50;0.40;;;14.20;99.90;;;;;;5052818;28;20437;-77
2021/07/01 09:01:29;;;;;;;0.50;0.50;;;14.20;99.90;;;;;;5052583;28;20444;-78
2021/07/01 09:03:59;;;;;;;1.02;1.02;;;14.30;99.90;;;;;;5056983;28;20532;-79
2021/07/01 09:06:27;;;;;;;1.53;0.77;;;14.20;99.90;;;;;;5055544;28;20233;-76
2021/07/01 09:08:57;;;;;;;0.40;0.40;;;14.30;99.90;;;;;;5058393;28;20473;-78
2021/07/01 09:11:29;;;;;;;0.40;0.40;;;14.30;99.90;;;;;;5054924;28;20433;-78
2021/07/01 09:13:58;;;;;;;0.70;0.70;;;14.30;99.90;;;;;;5053674;28;20484;-79
2021/07/01 09:16:25;;;;;;;4.33;4.00;;;14.20;99.90;;;;;;5052817;28;20814;-74
2021/07/01 09:18:57;;;;;;;2.40;1.57;;;14.20;99.90;;;;;;5052810;28;20436;-79
2021/07/01 09:21:25;;;;;;;0.50;0.40;;;14.20;99.90;;;;;;5055314;28;20425;-78
2021/07/01 09:23:53;;;;;;;12.90;2.45;;;14.20;99.90;;;;;;5052083;28;20461;-78
2021/07/01 09:26:22;;;;;;;2.05;1.30;;;14.20;99.90;;;;;;5052085;28;20190;-77
2021/07/01 09:28:54;;;;;;;1.13;0.97;;;14.30;99.90;;;;;;5052248;28;20221;-78
2021/07/01 09:31:22;;;;;;;2.30;1.50;;;14.30;99.90;;;;;;5052748;28;20464;-78
2021/07/01 09:33:50;;;;;;;3.80;1.27;;;14.40;99.90;;;;;;5052358;28;21001;-78
2021/07/01 09:36:24;;;;;;;0.50;0.50;;;14.30;99.90;;;;;;5052904;28;20792;-78
2021/07/01 09:38:51;;;;;;;0.93;0.90;;;14.30;99.90;;;;;;5052930;28;20899;-78
2021/07/01 09:41:22;;;;;;;0.40;0.40;;;14.40;99.90;;;;;;5053049;28;20440;-78
2021/07/01 09:43:49;;;;;;;0.50;0.40;;;14.40;99.90;;;;;;5052617;28;20561;-79
2021/07/01 09:46:18;;;;;;;0.70;0.70;;;14.50;99.90;;;;;;5052664;28;20449;-77
2021/07/01 09:48:48;;;;;;;2.77;2.57;;;14.50;99.90;;;;;;5052473;28;20477;-78
2021/07/01 09:51:16;;;;;;;0.50;0.40;;;14.60;99.90;;;;;;5053683;28;20479;-78
2021/07/01 09:53:49;;;;;;;3.87;1.13;;;14.50;99.90;;;;;;5064016;22;21028;-78
2021/07/01 09:56:23;;;;;;;0.40;0.30;;;14.60;99.90;;;;;;5052605;28;20421;-78
2021/07/01 09:58:51;;;;;;;1.60;1.50;;;14.60;99.90;;;;;;5053600;28;20441;-79
2021/07/01 10:01:25;;;;;;;0.83;0.80;;;14.60;99.90;;;;;;5053212;28;20448;-78
2021/07/01 10:03:56;;;;;;;0.40;0.30;;;14.50;99.90;;;;;;5053450;28;20883;-78
2021/07/01 10:06:23;;;;;;;0.40;0.30;;;14.60;99.90;;;;;;5052500;28;20920;-77
2021/07/01 10:08:51;;;;;;;4.00;2.53;;;14.70;99.90;;;;;;5052631;28;21114;-78
2021/07/01 10:11:34;;;;;;;1.47;1.37;;;14.70;99.90;;;;;;5053157;28;20444;-78
2021/07/01 10:14:03;;;;;;;2.07;1.33;;;14.50;99.90;;;;;;5052597;28;20457;-78
2021/07/01 10:16:31;;;;;;;1.23;1.13;;;14.50;99.90;;;;;;5051375;28;20452;-78
2021/07/01 10:18:58;;;;;;;0.60;0.60;;;14.60;99.90;;;;;;5052731;28;20559;-78
2021/07/01 10:21:29;;;;;;;0.83;0.70;;;14.60;99.90;;;;;;5052384;28;20449;-78
2021/07/01 10:24:12;;;;;;;2.67;2.50;;;14.60;99.90;;;;;;5048578;28;20464;-77
2021/07/01 10:26:42;;;;;;;0.50;0.50;;;14.60;99.90;;;;;;5042495;28;20438;-78
2021/07/01 10:29:09;;;;;;;0.40;0.30;;;14.60;99.90;;;;;;5056504;28;20471;-78
2021/07/01 10:31:54;;;;;;;2.10;0.90;;;14.70;99.90;;;;;;5056138;28;20537;-78
2021/07/01 10:34:21;;;;;;;1.10;0.93;;;14.70;99.90;;;;;;5061743;28;20534;-80
2021/07/01 10:36:48;;;;;;;1.17;0.80;;;14.70;99.90;;;;;;5063069;28;20436;-80
2021/07/01 10:39:28;;;;;;;2.27;2.17;;;14.70;99.90;;;;;;5061585;28;20447;-80
2021/07/01 10:42:01;;;;;;;2.80;1.50;;;14.70;99.90;;;;;;5063282;28;20487;-80
2021/07/01 10:44:28;;;;;;;0.80;0.80;;;14.60;99.90;;;;;;5062999;28;20461;-80
2021/07/01 10:46:54;;;;;;;0.60;0.57;;;14.60;99.90;;;;;;5062250;28;20465;-80
2021/07/01 10:49:33;;;;;;;3.80;2.20;;;14.60;99.90;;;;;;5062859;28;20476;-79
2021/07/01 10:52:01;;;;;;;1.50;1.40;;;14.50;99.90;;;;;;5062813;28;20429;-79
2021/07/01 10:54:29;;;;;;;0.90;0.90;;;14.40;99.90;;;;;;5050889;28;20907;-79
2021/07/01 10:57:04;;;;;;;5.47;2.50;;;14.50;99.90;;;;;;5057018;28;20434;-79
2021/07/01 10:59:47;;;;;;;0.40;0.30;;;14.50;99.90;;;;;;5062254;28;20934;-77
2021/07/01 11:02:21;;;;;;;0.40;0.30;;;14.50;99.90;;;;;;5061386;28;20453;-80
2021/07/01 11:04:49;;;;;;;0.93;0.60;;;14.60;99.90;;;;;;5062643;28;20432;-79
2021/07/01 11:07:18;;;;;;;0.50;0.50;;;14.70;99.90;;;;;;5061690;28;20440;-80
2021/07/01 11:09:47;;;;;;;1.03;0.80;;;14.70;99.90;;;;;;5062420;28;20509;-79
2021/07/01 11:12:13;;;;;;;3.90;1.90;;;14.70;99.90;;;;;;5063736;28;20444;-79
2021/07/01 11:14:42;;;;;;;3.27;2.37;;;14.80;99.90;;;;;;5061181;28;20453;-79
2021/07/01 11:17:10;;;;;;;1.03;0.90;;;14.70;99.90;;;;;;5061006;28;20433;-80
2021/07/01 11:19:41;;;;;;;0.40;0.30;;;14.70;99.90;;;;;;5061719;28;20425;-79
2021/07/01 11:22:08;;;;;;;1.07;1.07;;;14.70;99.90;;;;;;5056550;28;20442;-78
2021/07/01 11:24:40;;;;;;;1.27;1.23;;;14.70;99.90;;;;;;5042877;28;20457;-78
2021/07/01 11:27:09;;;;;;;0.40;0.30;;;14.80;99.90;;;;;;5051524;28;20513;-79
2021/07/01 11:29:37;;;;;;;0.40;0.40;;;14.90;99.90;;;;;;5053854;28;20472;-77
2021/07/01 11:32:15;;;;;;;3.50;1.23;;;14.90;99.90;;;;;;5054327;28;20429;-78
2021/07/01 11:34:43;;;;;;;3.60;3.30;;;14.90;99.90;;;;;;5053190;28;20448;-78
2021/07/01 11:37:10;;;;;;;0.73;0.73;;;14.90;99.90;;;;;;5054125;28;20429;-78
2021/07/01 11:39:37;;;;;;;1.67;1.03;;;14.90;99.90;;;;;;5053872;28;20536;-78
2021/07/01 11:42:05;;;;;;;0.40;0.30;;;14.90;99.90;;;;;;5060671;28;20425;-79
2021/07/01 11:44:34;;;;;;;4.27;2.17;;;15.00;99.90;;;;;;5063092;28;20453;-79
2021/07/01 11:47:03;;;;;;;1.67;1.57;;;14.90;99.90;;;;;;5063054;28;20433;-80
2021/07/01 11:49:31;;;;;;;0.40;0.40;;;14.90;99.90;;;;;;5061968;28;20468;-77
2021/07/01 11:51:59;;;;;;;1.30;1.30;;;15.00;99.90;;;;;;5065463;28;20455;-80
2021/07/01 11:54:26;;;;;;;0.40;0.30;;;15.00;99.90;;;;;;5050382;28;20470;-78
2021/07/01 11:56:57;;;;;;;1.77;1.47;;;15.00;99.90;;;;;;5057170;28;21075;-78
2021/07/01 11:59:25;;;;;;;0.50;0.40;;;15.00;99.90;;;;;;5059768;28;20937;-78
2021/07/01 12:01:54;;;;;;;1.13;1.13;;;14.90;99.90;;;;;;5060364;28;20440;-78
2021/07/01 12:04:26;;;;;;;2.40;2.00;;;14.90;99.90;;;;;;5059087;28;20461;-80
2021/07/01 12:06:59;;;;;;;3.43;2.23;;;14.90;99.90;;;;;;5059968;28;20426;-79
2021/07/01 12:09:26;;;;;;;1.80;1.37;;;14.70;99.90;;;;;;5059323;28;20576;-79
2021/07/01 12:12:20;;;;;;;0.40;0.40;;;14.70;99.90;;;;;;5059978;28;20457;-79
2021/07/01 12:14:48;;;;;;;2.30;1.50;;;14.70;99.90;;;;;;5058723;28;20949;-79
2021/07/01 12:17:51;;;;;;;0.83;0.80;;;14.70;99.90;;;;;;5059474;28;20938;-79
2021/07/01 12:20:37;;;;;;;0.60;0.60;;;14.50;99.90;;;;;;5060460;28;20531;-79
2021/07/01 12:23:20;;;;;;;0.40;0.40;;;14.60;99.90;;;;;;5051585;28;20516;-79
2021/07/01 12:25:49;;;;;;;1.17;1.07;;;14.60;99.90;;;;;;5042459;28;20501;-79
2021/07/01 12:28:19;;;;;;;0.40;0.30;;;14.60;99.90;;;;;;5038878;28;20440;-79
2021/07/01 12:42:23;;;;;;;3.50;1.00;;;14.40;99.90;;;;;;5143052;27;20529;-77
2021/07/01 12:44:51;;;;;;;0.40;0.40;;;14.40;99.90;;;;;;5133569;28;20433;-78
2021/07/01 12:47:28;;;;;;;1.90;1.63;;;14.40;99.90;;;;;;5131092;28;21229;-78
2021/07/01 12:49:59;;;;;;;0.40;0.30;;;14.40;99.90;;;;;;5131007;27;20432;-79
2021/07/01 12:52:46;;;;;;;0.40;0.30;;;14.50;99.90;;;;;;5131071;28;20456;-79
2021/07/01 12:55:29;;;;;;;1.17;0.97;;;14.60;99.90;;;;;;5124339;28;20452;-79
2021/07/01 12:57:57;;;;;;;1.07;1.07;;;14.60;99.90;;;;;;5130891;28;20422;-79
2021/07/01 13:00:24;;;;;;;0.70;0.60;;;14.70;99.90;;;;;;5129954;28;20473;-79
2021/07/01 13:03:05;;;;;;;1.90;1.57;;;14.70;99.90;;;;;;5130901;28;20572;-79
2021/07/01 13:05:35;;;;;;;0.50;0.40;;;14.70;99.90;;;;;;5132316;28;20447;-79
2021/07/01 13:08:02;;;;;;;0.60;0.60;;;14.60;99.90;;;;;;5125517;28;20464;-78